Etusivu
METAR-TAF:

METAR-TAF

Lentoasemat :

Quimper, Ranska

Leveyspiiri: 47-58N, Pituuspiiri: 004-10W, korkeus merenpinnasta: 92 m

Tämänhetkinen sää

Tämä raportti tehtiin 29 minuuttia sitten, kello 05.30 UTC
Tuuli 4 kn lännestä/luoteesta
Lämpötila 15°C
Kosteus 94%
Ilmanpaine 1019 hPa
Näkyvyys 10 km tai enemmän
ei pilviä alle 1500 m:ssä eikä cumulonimbus-pilviä

METAR: LFRQ 170530Z AUTO 29004KT CAVOK 15/14 Q1019 TEMPO SHRA

Aika: 07:59 (05:59 UTC)

Sääennuste

Tämä raportti tehtiin 59 minuuttia sitten, kello 05.00 UTC
Ennuste voimassa 17. päivästä klo 06 UTC - 18. päivään klo 06 UTC
Tuuli 5 kn lännestä
Näkyvyys 10 km tai enemmän
Muutamia pilviä 2500 ft:n korkeudessa
Hajanaisia pilviä 6000 ft:n korkeudessa
Todennäköisyys 30% :
Ajoittain
17. päivästä klo 06 UTC - 17. päivään klo 12 UTC
Hajonneita pilviä 2000 ft:n korkeudessa
vesikuuroja

TAF: LFRQ 170500Z 1706/1806 26005KT 9999 FEW025 SCT060 PROB30 TEMPO 1706/1712 SHRA BKN020

Säähavainnot ja -ennusteet yli 4000 lentoasemalta (METAR- ja TAF-raportit).

Käytössä olevat sääasemat on merkitty karttaan keltaisilla ja punaisilla pisteillä.

Aseta hiiri pisteen päälle nähdäksesi sääaseman nimen.

Klikkaa sitten nähdäksesi säähavainnot ja -ennusteet.

Kartan vaihtaminen: klikkaa mustalla rastilla varustettuja vihreitä pisteitä, niin voit zoomata sisään; viivalla varustettua vihreää pistettä, niin voit zoomata ulos tai vihreitä nuolia, niin pääset viereisille kartoille.


METAR-TAF: